sensor_id;sensor_type;location;lat;lon;timestamp;P1;durP1;ratioP1;P2;durP2;ratioP2
25069;SDS011;13064;48.162;11.536;2023-02-28T00:00:55;5.30;;;2.88;;
25069;SDS011;13064;48.162;11.536;2023-02-28T00:03:23;4.53;;;2.72;;
25069;SDS011;13064;48.162;11.536;2023-02-28T00:05:50;6.25;;;2.80;;
25069;SDS011;13064;48.162;11.536;2023-02-28T00:08:18;5.47;;;2.65;;
25069;SDS011;13064;48.162;11.536;2023-02-28T00:10:46;7.25;;;2.95;;
25069;SDS011;13064;48.162;11.536;2023-02-28T00:13:13;4.15;;;2.50;;
25069;SDS011;13064;48.162;11.536;2023-02-28T00:15:41;7.38;;;2.80;;
25069;SDS011;13064;48.162;11.536;2023-02-28T00:18:09;4.60;;;2.92;;
25069;SDS011;13064;48.162;11.536;2023-02-28T00:20:38;4.10;;;2.55;;
25069;SDS011;13064;48.162;11.536;2023-02-28T00:23:06;6.53;;;2.97;;
25069;SDS011;13064;48.162;11.536;2023-02-28T00:25:33;6.05;;;2.90;;
25069;SDS011;13064;48.162;11.536;2023-02-28T00:28:01;3.58;;;2.90;;
25069;SDS011;13064;48.162;11.536;2023-02-28T00:30:28;6.00;;;3.28;;
25069;SDS011;13064;48.162;11.536;2023-02-28T00:32:56;5.45;;;2.88;;
25069;SDS011;13064;48.162;11.536;2023-02-28T00:35:24;4.55;;;2.38;;
25069;SDS011;13064;48.162;11.536;2023-02-28T00:37:52;4.55;;;3.10;;
25069;SDS011;13064;48.162;11.536;2023-02-28T00:40:20;3.55;;;2.70;;
25069;SDS011;13064;48.162;11.536;2023-02-28T00:42:48;4.55;;;2.97;;
25069;SDS011;13064;48.162;11.536;2023-02-28T00:45:16;3.88;;;3.00;;
25069;SDS011;13064;48.162;11.536;2023-02-28T00:47:44;5.40;;;2.88;;
25069;SDS011;13064;48.162;11.536;2023-02-28T00:50:13;6.90;;;3.25;;
25069;SDS011;13064;48.162;11.536;2023-02-28T00:52:40;3.92;;;2.85;;
25069;SDS011;13064;48.162;11.536;2023-02-28T00:55:08;6.60;;;2.88;;
25069;SDS011;13064;48.162;11.536;2023-02-28T00:57:36;8.82;;;3.40;;
25069;SDS011;13064;48.162;11.536;2023-02-28T01:00:04;5.63;;;3.15;;
25069;SDS011;13064;48.162;11.536;2023-02-28T01:02:31;6.50;;;3.17;;
25069;SDS011;13064;48.162;11.536;2023-02-28T01:04:59;5.18;;;3.05;;
25069;SDS011;13064;48.162;11.536;2023-02-28T01:07:29;6.80;;;3.55;;
25069;SDS011;13064;48.162;11.536;2023-02-28T01:09:56;4.18;;;3.00;;
25069;SDS011;13064;48.162;11.536;2023-02-28T01:12:24;5.43;;;3.33;;
25069;SDS011;13064;48.162;11.536;2023-02-28T01:14:52;5.15;;;3.10;;
25069;SDS011;13064;48.162;11.536;2023-02-28T01:17:20;5.07;;;3.13;;
25069;SDS011;13064;48.162;11.536;2023-02-28T01:19:48;5.10;;;3.00;;
25069;SDS011;13064;48.162;11.536;2023-02-28T01:22:16;4.57;;;2.97;;
25069;SDS011;13064;48.162;11.536;2023-02-28T01:24:43;4.95;;;3.63;;
25069;SDS011;13064;48.162;11.536;2023-02-28T01:27:13;7.05;;;3.53;;
25069;SDS011;13064;48.162;11.536;2023-02-28T01:29:41;5.13;;;3.42;;
25069;SDS011;13064;48.162;11.536;2023-02-28T01:32:09;7.10;;;3.40;;
25069;SDS011;13064;48.162;11.536;2023-02-28T01:34:36;5.97;;;3.20;;
25069;SDS011;13064;48.162;11.536;2023-02-28T01:37:04;5.75;;;3.60;;
25069;SDS011;13064;48.162;11.536;2023-02-28T01:39:33;6.50;;;3.50;;
25069;SDS011;13064;48.162;11.536;2023-02-28T01:42:00;7.25;;;3.05;;
25069;SDS011;13064;48.162;11.536;2023-02-28T01:47:14;5.35;;;3.42;;
25069;SDS011;13064;48.162;11.536;2023-02-28T01:49:42;4.25;;;3.10;;
25069;SDS011;13064;48.162;11.536;2023-02-28T01:52:09;5.72;;;3.63;;
25069;SDS011;13064;48.162;11.536;2023-02-28T01:54:46;5.60;;;3.22;;
25069;SDS011;13064;48.162;11.536;2023-02-28T01:57:17;4.88;;;3.65;;
25069;SDS011;13064;48.162;11.536;2023-02-28T02:02:16;4.47;;;3.00;;
25069;SDS011;13064;48.162;11.536;2023-02-28T02:07:43;5.50;;;3.45;;
25069;SDS011;13064;48.162;11.536;2023-02-28T02:10:13;5.78;;;3.72;;
25069;SDS011;13064;48.162;11.536;2023-02-28T02:15:19;6.97;;;3.38;;
25069;SDS011;13064;48.162;11.536;2023-02-28T02:17:50;7.57;;;3.83;;
25069;SDS011;13064;48.162;11.536;2023-02-28T02:20:26;5.65;;;3.30;;
25069;SDS011;13064;48.162;11.536;2023-02-28T02:23:10;7.20;;;3.63;;
25069;SDS011;13064;48.162;11.536;2023-02-28T02:25:45;7.18;;;3.78;;
25069;SDS011;13064;48.162;11.536;2023-02-28T02:28:24;5.82;;;3.42;;
25069;SDS011;13064;48.162;11.536;2023-02-28T02:38:42;3.78;;;3.30;;
25069;SDS011;13064;48.162;11.536;2023-02-28T02:43:53;6.95;;;3.33;;
25069;SDS011;13064;48.162;11.536;2023-02-28T02:46:34;7.35;;;3.75;;
25069;SDS011;13064;48.162;11.536;2023-02-28T02:49:04;6.22;;;3.65;;
25069;SDS011;13064;48.162;11.536;2023-02-28T02:51:34;4.75;;;3.28;;
25069;SDS011;13064;48.162;11.536;2023-02-28T02:56:30;6.30;;;3.45;;
25069;SDS011;13064;48.162;11.536;2023-02-28T02:59:01;7.15;;;3.67;;
25069;SDS011;13064;48.162;11.536;2023-02-28T03:01:30;6.50;;;3.65;;
25069;SDS011;13064;48.162;11.536;2023-02-28T03:04:03;7.00;;;3.70;;
25069;SDS011;13064;48.162;11.536;2023-02-28T03:06:31;5.25;;;3.85;;
25069;SDS011;13064;48.162;11.536;2023-02-28T03:08:59;7.25;;;4.10;;
25069;SDS011;13064;48.162;11.536;2023-02-28T03:11:27;6.05;;;3.90;;
25069;SDS011;13064;48.162;11.536;2023-02-28T03:14:15;6.25;;;4.30;;
25069;SDS011;13064;48.162;11.536;2023-02-28T03:19:38;8.80;;;4.65;;
25069;SDS011;13064;48.162;11.536;2023-02-28T03:22:31;7.40;;;4.20;;
25069;SDS011;13064;48.162;11.536;2023-02-28T03:27:42;7.15;;;4.43;;
25069;SDS011;13064;48.162;11.536;2023-02-28T03:35:16;7.80;;;4.60;;
25069;SDS011;13064;48.162;11.536;2023-02-28T03:37:53;7.20;;;4.57;;
25069;SDS011;13064;48.162;11.536;2023-02-28T03:40:21;8.73;;;4.80;;
25069;SDS011;13064;48.162;11.536;2023-02-28T03:42:51;9.23;;;4.40;;
25069;SDS011;13064;48.162;11.536;2023-02-28T03:45:22;7.38;;;4.80;;
25069;SDS011;13064;48.162;11.536;2023-02-28T03:47:56;7.38;;;4.50;;
25069;SDS011;13064;48.162;11.536;2023-02-28T03:50:25;7.35;;;4.65;;
25069;SDS011;13064;48.162;11.536;2023-02-28T03:55:28;8.25;;;4.60;;
25069;SDS011;13064;48.162;11.536;2023-02-28T03:57:58;7.18;;;4.88;;
25069;SDS011;13064;48.162;11.536;2023-02-28T04:00:33;8.35;;;4.78;;
25069;SDS011;13064;48.162;11.536;2023-02-28T04:03:01;8.80;;;5.60;;
25069;SDS011;13064;48.162;11.536;2023-02-28T04:05:29;10.98;;;5.40;;
25069;SDS011;13064;48.162;11.536;2023-02-28T04:08:07;9.70;;;5.38;;
25069;SDS011;13064;48.162;11.536;2023-02-28T04:10:34;9.18;;;5.72;;
25069;SDS011;13064;48.162;11.536;2023-02-28T04:13:02;9.77;;;5.50;;
25069;SDS011;13064;48.162;11.536;2023-02-28T04:15:30;8.77;;;5.70;;
25069;SDS011;13064;48.162;11.536;2023-02-28T04:17:58;9.38;;;4.88;;
25069;SDS011;13064;48.162;11.536;2023-02-28T04:20:26;7.82;;;4.97;;
25069;SDS011;13064;48.162;11.536;2023-02-28T04:22:53;7.45;;;4.90;;
25069;SDS011;13064;48.162;11.536;2023-02-28T04:25:21;9.50;;;5.47;;
25069;SDS011;13064;48.162;11.536;2023-02-28T04:27:48;9.73;;;5.72;;
25069;SDS011;13064;48.162;11.536;2023-02-28T04:30:16;7.63;;;5.20;;
25069;SDS011;13064;48.162;11.536;2023-02-28T04:32:44;9.30;;;5.38;;
25069;SDS011;13064;48.162;11.536;2023-02-28T04:35:11;12.95;;;6.97;;
25069;SDS011;13064;48.162;11.536;2023-02-28T04:37:39;8.25;;;5.35;;
25069;SDS011;13064;48.162;11.536;2023-02-28T04:40:07;10.00;;;5.85;;
25069;SDS011;13064;48.162;11.536;2023-02-28T04:42:34;8.38;;;5.68;;
25069;SDS011;13064;48.162;11.536;2023-02-28T04:45:02;9.25;;;5.47;;
25069;SDS011;13064;48.162;11.536;2023-02-28T04:47:30;9.30;;;5.43;;
25069;SDS011;13064;48.162;11.536;2023-02-28T04:49:58;11.98;;;5.95;;
25069;SDS011;13064;48.162;11.536;2023-02-28T04:52:26;9.00;;;6.05;;
25069;SDS011;13064;48.162;11.536;2023-02-28T04:54:54;9.57;;;6.53;;
25069;SDS011;13064;48.162;11.536;2023-02-28T04:57:22;8.73;;;5.50;;
25069;SDS011;13064;48.162;11.536;2023-02-28T04:59:50;9.77;;;6.07;;
25069;SDS011;13064;48.162;11.536;2023-02-28T05:02:18;10.05;;;6.07;;
25069;SDS011;13064;48.162;11.536;2023-02-28T05:04:47;10.40;;;5.93;;
25069;SDS011;13064;48.162;11.536;2023-02-28T05:07:15;11.10;;;7.38;;
25069;SDS011;13064;48.162;11.536;2023-02-28T05:09:42;11.05;;;6.22;;
25069;SDS011;13064;48.162;11.536;2023-02-28T05:12:10;11.48;;;6.45;;
25069;SDS011;13064;48.162;11.536;2023-02-28T05:14:38;10.05;;;6.10;;
25069;SDS011;13064;48.162;11.536;2023-02-28T05:17:05;9.85;;;6.10;;
25069;SDS011;13064;48.162;11.536;2023-02-28T05:19:33;13.23;;;7.32;;
25069;SDS011;13064;48.162;11.536;2023-02-28T05:22:00;11.63;;;7.22;;
25069;SDS011;13064;48.162;11.536;2023-02-28T05:24:29;12.00;;;6.78;;
25069;SDS011;13064;48.162;11.536;2023-02-28T05:26:56;11.68;;;6.72;;
25069;SDS011;13064;48.162;11.536;2023-02-28T05:29:24;12.02;;;6.88;;
25069;SDS011;13064;48.162;11.536;2023-02-28T05:31:52;13.20;;;7.18;;
25069;SDS011;13064;48.162;11.536;2023-02-28T05:34:20;10.52;;;6.78;;
25069;SDS011;13064;48.162;11.536;2023-02-28T05:36:47;16.02;;;7.47;;
25069;SDS011;13064;48.162;11.536;2023-02-28T05:39:15;16.27;;;7.53;;
25069;SDS011;13064;48.162;11.536;2023-02-28T05:41:43;10.68;;;7.18;;
25069;SDS011;13064;48.162;11.536;2023-02-28T05:44:10;9.23;;;6.90;;
25069;SDS011;13064;48.162;11.536;2023-02-28T05:46:38;11.77;;;7.13;;
25069;SDS011;13064;48.162;11.536;2023-02-28T05:49:06;13.27;;;7.65;;
25069;SDS011;13064;48.162;11.536;2023-02-28T05:51:34;15.10;;;7.75;;
25069;SDS011;13064;48.162;11.536;2023-02-28T05:54:03;12.82;;;8.27;;
25069;SDS011;13064;48.162;11.536;2023-02-28T05:56:30;16.75;;;8.45;;
25069;SDS011;13064;48.162;11.536;2023-02-28T05:58:58;12.68;;;7.53;;
25069;SDS011;13064;48.162;11.536;2023-02-28T06:01:36;18.67;;;8.18;;
25069;SDS011;13064;48.162;11.536;2023-02-28T06:04:05;13.55;;;8.52;;
25069;SDS011;13064;48.162;11.536;2023-02-28T06:06:33;12.77;;;8.40;;
25069;SDS011;13064;48.162;11.536;2023-02-28T06:09:03;15.93;;;8.90;;
25069;SDS011;13064;48.162;11.536;2023-02-28T06:11:32;16.75;;;9.07;;
25069;SDS011;13064;48.162;11.536;2023-02-28T06:14:00;16.70;;;8.80;;
25069;SDS011;13064;48.162;11.536;2023-02-28T06:16:28;17.50;;;9.20;;
25069;SDS011;13064;48.162;11.536;2023-02-28T06:18:56;14.77;;;8.75;;
25069;SDS011;13064;48.162;11.536;2023-02-28T06:21:24;15.18;;;9.07;;
25069;SDS011;13064;48.162;11.536;2023-02-28T06:23:54;15.00;;;8.90;;
25069;SDS011;13064;48.162;11.536;2023-02-28T06:26:22;14.98;;;9.57;;
25069;SDS011;13064;48.162;11.536;2023-02-28T06:28:50;14.85;;;9.18;;
25069;SDS011;13064;48.162;11.536;2023-02-28T06:31:17;14.88;;;9.27;;
25069;SDS011;13064;48.162;11.536;2023-02-28T06:33:45;13.43;;;8.73;;
25069;SDS011;13064;48.162;11.536;2023-02-28T06:36:14;59.30;;;14.85;;
25069;SDS011;13064;48.162;11.536;2023-02-28T06:38:42;20.58;;;10.98;;
25069;SDS011;13064;48.162;11.536;2023-02-28T06:41:10;14.70;;;9.25;;
25069;SDS011;13064;48.162;11.536;2023-02-28T06:43:39;17.38;;;10.23;;
25069;SDS011;13064;48.162;11.536;2023-02-28T06:46:08;18.00;;;10.27;;
25069;SDS011;13064;48.162;11.536;2023-02-28T06:48:36;16.60;;;9.35;;
25069;SDS011;13064;48.162;11.536;2023-02-28T06:51:10;16.95;;;9.88;;
25069;SDS011;13064;48.162;11.536;2023-02-28T06:53:40;18.85;;;10.85;;
25069;SDS011;13064;48.162;11.536;2023-02-28T06:56:12;16.00;;;10.15;;
25069;SDS011;13064;48.162;11.536;2023-02-28T06:58:40;19.73;;;10.88;;
25069;SDS011;13064;48.162;11.536;2023-02-28T07:01:08;14.57;;;10.40;;
25069;SDS011;13064;48.162;11.536;2023-02-28T07:03:36;17.15;;;10.55;;
25069;SDS011;13064;48.162;11.536;2023-02-28T07:06:04;19.00;;;10.73;;
25069;SDS011;13064;48.162;11.536;2023-02-28T07:08:33;17.70;;;10.52;;
25069;SDS011;13064;48.162;11.536;2023-02-28T07:11:00;18.58;;;10.45;;
25069;SDS011;13064;48.162;11.536;2023-02-28T07:13:28;17.63;;;9.95;;
25069;SDS011;13064;48.162;11.536;2023-02-28T07:15:57;15.95;;;9.80;;
25069;SDS011;13064;48.162;11.536;2023-02-28T07:18:26;18.52;;;10.57;;
25069;SDS011;13064;48.162;11.536;2023-02-28T07:20:53;13.73;;;10.15;;
25069;SDS011;13064;48.162;11.536;2023-02-28T07:23:21;16.95;;;10.23;;
25069;SDS011;13064;48.162;11.536;2023-02-28T07:25:50;16.58;;;9.80;;
25069;SDS011;13064;48.162;11.536;2023-02-28T07:28:17;19.00;;;10.43;;
25069;SDS011;13064;48.162;11.536;2023-02-28T07:30:45;16.42;;;10.13;;
25069;SDS011;13064;48.162;11.536;2023-02-28T07:33:12;18.15;;;10.27;;
25069;SDS011;13064;48.162;11.536;2023-02-28T07:35:40;20.85;;;10.48;;
25069;SDS011;13064;48.162;11.536;2023-02-28T07:38:08;15.43;;;9.73;;
25069;SDS011;13064;48.162;11.536;2023-02-28T07:40:36;16.35;;;10.20;;
25069;SDS011;13064;48.162;11.536;2023-02-28T07:43:04;17.08;;;11.15;;
25069;SDS011;13064;48.162;11.536;2023-02-28T07:45:31;19.05;;;10.40;;
25069;SDS011;13064;48.162;11.536;2023-02-28T07:48:01;17.65;;;10.73;;
25069;SDS011;13064;48.162;11.536;2023-02-28T07:50:29;19.80;;;11.75;;
25069;SDS011;13064;48.162;11.536;2023-02-28T07:52:58;20.52;;;11.88;;
25069;SDS011;13064;48.162;11.536;2023-02-28T07:55:25;19.27;;;11.90;;
25069;SDS011;13064;48.162;11.536;2023-02-28T07:57:53;17.75;;;11.00;;
25069;SDS011;13064;48.162;11.536;2023-02-28T08:00:21;19.38;;;11.30;;
25069;SDS011;13064;48.162;11.536;2023-02-28T08:02:49;19.40;;;10.85;;
25069;SDS011;13064;48.162;11.536;2023-02-28T08:05:17;15.63;;;11.35;;
25069;SDS011;13064;48.162;11.536;2023-02-28T08:07:49;17.95;;;10.98;;
25069;SDS011;13064;48.162;11.536;2023-02-28T08:10:16;25.05;;;11.55;;
25069;SDS011;13064;48.162;11.536;2023-02-28T08:12:44;18.92;;;11.02;;
25069;SDS011;13064;48.162;11.536;2023-02-28T08:15:12;16.90;;;10.88;;
25069;SDS011;13064;48.162;11.536;2023-02-28T08:17:39;16.25;;;11.25;;
25069;SDS011;13064;48.162;11.536;2023-02-28T08:20:07;17.30;;;11.27;;
25069;SDS011;13064;48.162;11.536;2023-02-28T08:22:36;17.83;;;11.38;;
25069;SDS011;13064;48.162;11.536;2023-02-28T08:25:04;18.40;;;10.80;;
25069;SDS011;13064;48.162;11.536;2023-02-28T08:27:33;18.35;;;11.32;;
25069;SDS011;13064;48.162;11.536;2023-02-28T08:30:01;18.70;;;11.60;;
25069;SDS011;13064;48.162;11.536;2023-02-28T08:32:29;21.25;;;12.23;;
25069;SDS011;13064;48.162;11.536;2023-02-28T08:34:57;19.13;;;11.80;;
25069;SDS011;13064;48.162;11.536;2023-02-28T08:37:25;17.42;;;10.93;;
25069;SDS011;13064;48.162;11.536;2023-02-28T08:39:52;21.58;;;11.95;;
25069;SDS011;13064;48.162;11.536;2023-02-28T08:42:22;18.52;;;11.20;;
25069;SDS011;13064;48.162;11.536;2023-02-28T08:44:51;19.27;;;11.38;;
25069;SDS011;13064;48.162;11.536;2023-02-28T08:47:19;16.25;;;11.23;;
25069;SDS011;13064;48.162;11.536;2023-02-28T08:49:46;18.05;;;11.57;;
25069;SDS011;13064;48.162;11.536;2023-02-28T08:52:14;19.65;;;11.20;;
25069;SDS011;13064;48.162;11.536;2023-02-28T08:54:42;16.83;;;11.20;;
25069;SDS011;13064;48.162;11.536;2023-02-28T08:57:09;17.08;;;10.93;;
25069;SDS011;13064;48.162;11.536;2023-02-28T08:59:37;19.13;;;11.52;;
25069;SDS011;13064;48.162;11.536;2023-02-28T09:02:05;17.77;;;11.40;;
25069;SDS011;13064;48.162;11.536;2023-02-28T09:04:33;16.92;;;10.82;;
25069;SDS011;13064;48.162;11.536;2023-02-28T09:07:01;16.95;;;11.13;;
25069;SDS011;13064;48.162;11.536;2023-02-28T09:09:28;17.42;;;11.25;;
25069;SDS011;13064;48.162;11.536;2023-02-28T09:11:56;18.67;;;10.68;;
25069;SDS011;13064;48.162;11.536;2023-02-28T09:14:24;17.17;;;11.20;;
25069;SDS011;13064;48.162;11.536;2023-02-28T09:16:52;16.52;;;11.48;;
25069;SDS011;13064;48.162;11.536;2023-02-28T09:19:19;14.68;;;11.07;;
25069;SDS011;13064;48.162;11.536;2023-02-28T09:21:47;18.00;;;11.73;;
25069;SDS011;13064;48.162;11.536;2023-02-28T09:24:15;18.38;;;10.90;;
25069;SDS011;13064;48.162;11.536;2023-02-28T09:26:42;16.73;;;10.68;;
25069;SDS011;13064;48.162;11.536;2023-02-28T09:29:29;17.92;;;11.77;;
25069;SDS011;13064;48.162;11.536;2023-02-28T09:31:57;17.45;;;11.52;;
25069;SDS011;13064;48.162;11.536;2023-02-28T09:34:25;17.23;;;11.02;;
25069;SDS011;13064;48.162;11.536;2023-02-28T09:36:53;19.35;;;11.27;;
25069;SDS011;13064;48.162;11.536;2023-02-28T09:39:21;21.58;;;11.35;;
25069;SDS011;13064;48.162;11.536;2023-02-28T09:41:52;15.10;;;10.43;;
25069;SDS011;13064;48.162;11.536;2023-02-28T09:46:54;17.92;;;11.23;;
25069;SDS011;13064;48.162;11.536;2023-02-28T09:49:24;18.75;;;11.05;;
25069;SDS011;13064;48.162;11.536;2023-02-28T09:52:00;16.27;;;10.65;;
25069;SDS011;13064;48.162;11.536;2023-02-28T09:54:29;16.02;;;10.75;;
25069;SDS011;13064;48.162;11.536;2023-02-28T10:09:55;18.85;;;11.88;;
25069;SDS011;13064;48.162;11.536;2023-02-28T10:12:25;19.15;;;11.27;;
25069;SDS011;13064;48.162;11.536;2023-02-28T10:14:54;17.50;;;11.20;;
25069;SDS011;13064;48.162;11.536;2023-02-28T10:17:26;18.63;;;11.50;;
25069;SDS011;13064;48.162;11.536;2023-02-28T10:25:18;15.57;;;11.07;;
25069;SDS011;13064;48.162;11.536;2023-02-28T10:27:46;17.95;;;11.70;;
25069;SDS011;13064;48.162;11.536;2023-02-28T10:30:13;18.48;;;11.52;;
25069;SDS011;13064;48.162;11.536;2023-02-28T10:32:43;18.50;;;11.43;;
25069;SDS011;13064;48.162;11.536;2023-02-28T10:35:24;18.05;;;11.38;;
25069;SDS011;13064;48.162;11.536;2023-02-28T10:37:56;16.20;;;9.98;;
25069;SDS011;13064;48.162;11.536;2023-02-28T10:45:28;14.27;;;9.25;;
25069;SDS011;13064;48.162;11.536;2023-02-28T10:48:01;16.35;;;10.98;;
25069;SDS011;13064;48.162;11.536;2023-02-28T10:53:35;14.43;;;9.60;;
25069;SDS011;13064;48.162;11.536;2023-02-28T10:55:58;16.48;;;10.10;;
25069;SDS011;13064;48.162;11.536;2023-02-28T10:58:28;16.75;;;10.52;;
25069;SDS011;13064;48.162;11.536;2023-02-28T11:00:57;17.02;;;10.80;;
25069;SDS011;13064;48.162;11.536;2023-02-28T11:03:29;15.25;;;10.40;;
25069;SDS011;13064;48.162;11.536;2023-02-28T11:05:57;22.90;;;11.45;;
25069;SDS011;13064;48.162;11.536;2023-02-28T11:08:25;16.45;;;10.30;;
25069;SDS011;13064;48.162;11.536;2023-02-28T11:10:54;15.65;;;10.98;;
25069;SDS011;13064;48.162;11.536;2023-02-28T11:13:25;14.32;;;9.85;;
25069;SDS011;13064;48.162;11.536;2023-02-28T11:15:54;15.20;;;10.20;;
25069;SDS011;13064;48.162;11.536;2023-02-28T11:18:44;16.38;;;10.02;;
25069;SDS011;13064;48.162;11.536;2023-02-28T11:21:25;14.57;;;10.35;;
25069;SDS011;13064;48.162;11.536;2023-02-28T11:24:02;15.52;;;10.10;;
25069;SDS011;13064;48.162;11.536;2023-02-28T11:26:35;18.33;;;9.98;;
25069;SDS011;13064;48.162;11.536;2023-02-28T11:29:09;18.45;;;10.23;;
25069;SDS011;13064;48.162;11.536;2023-02-28T11:31:37;17.65;;;10.32;;
25069;SDS011;13064;48.162;11.536;2023-02-28T11:34:21;17.55;;;10.10;;
25069;SDS011;13064;48.162;11.536;2023-02-28T11:36:51;15.30;;;10.18;;
25069;SDS011;13064;48.162;11.536;2023-02-28T11:39:20;13.95;;;9.57;;
25069;SDS011;13064;48.162;11.536;2023-02-28T11:47:32;14.52;;;9.25;;
25069;SDS011;13064;48.162;11.536;2023-02-28T11:55:20;15.27;;;9.73;;
25069;SDS011;13064;48.162;11.536;2023-02-28T12:03:26;14.05;;;9.68;;
25069;SDS011;13064;48.162;11.536;2023-02-28T12:06:05;12.98;;;8.90;;
25069;SDS011;13064;48.162;11.536;2023-02-28T12:08:42;13.48;;;8.88;;
25069;SDS011;13064;48.162;11.536;2023-02-28T12:19:20;10.63;;;8.80;;
25069;SDS011;13064;48.162;11.536;2023-02-28T12:22:12;10.27;;;8.93;;
25069;SDS011;13064;48.162;11.536;2023-02-28T12:25:48;12.20;;;9.02;;
25069;SDS011;13064;48.162;11.536;2023-02-28T12:27:42;13.23;;;8.30;;
25069;SDS011;13064;48.162;11.536;2023-02-28T12:30:22;12.75;;;8.68;;
25069;SDS011;13064;48.162;11.536;2023-02-28T12:33:26;13.15;;;8.70;;
25069;SDS011;13064;48.162;11.536;2023-02-28T12:35:47;12.85;;;8.07;;
25069;SDS011;13064;48.162;11.536;2023-02-28T12:38:19;11.30;;;8.10;;
25069;SDS011;13064;48.162;11.536;2023-02-28T12:40:57;11.13;;;7.50;;
25069;SDS011;13064;48.162;11.536;2023-02-28T12:43:32;12.18;;;8.80;;
25069;SDS011;13064;48.162;11.536;2023-02-28T12:46:02;11.73;;;8.00;;
25069;SDS011;13064;48.162;11.536;2023-02-28T12:48:33;9.48;;;7.95;;
25069;SDS011;13064;48.162;11.536;2023-02-28T12:51:05;9.55;;;8.55;;
25069;SDS011;13064;48.162;11.536;2023-02-28T12:53:51;10.95;;;7.80;;
25069;SDS011;13064;48.162;11.536;2023-02-28T12:56:27;9.70;;;7.75;;
25069;SDS011;13064;48.162;11.536;2023-02-28T12:59:03;10.20;;;8.02;;
25069;SDS011;13064;48.162;11.536;2023-02-28T13:01:42;10.32;;;8.27;;
25069;SDS011;13064;48.162;11.536;2023-02-28T13:04:32;10.77;;;8.40;;
25069;SDS011;13064;48.162;11.536;2023-02-28T13:09:31;12.27;;;8.15;;
25069;SDS011;13064;48.162;11.536;2023-02-28T13:11:59;10.30;;;8.30;;
25069;SDS011;13064;48.162;11.536;2023-02-28T13:14:34;10.80;;;8.43;;
25069;SDS011;13064;48.162;11.536;2023-02-28T13:19:38;10.77;;;8.50;;
25069;SDS011;13064;48.162;11.536;2023-02-28T13:22:15;11.65;;;7.75;;
25069;SDS011;13064;48.162;11.536;2023-02-28T13:24:44;10.88;;;8.95;;
25069;SDS011;13064;48.162;11.536;2023-02-28T13:29:43;10.88;;;7.90;;
25069;SDS011;13064;48.162;11.536;2023-02-28T13:34:47;11.25;;;8.07;;
25069;SDS011;13064;48.162;11.536;2023-02-28T13:37:37;11.10;;;7.78;;
25069;SDS011;13064;48.162;11.536;2023-02-28T13:47:40;12.60;;;7.95;;
25069;SDS011;13064;48.162;11.536;2023-02-28T13:55:34;11.05;;;8.65;;
25069;SDS011;13064;48.162;11.536;2023-02-28T14:11:41;13.85;;;8.80;;
25069;SDS011;13064;48.162;11.536;2023-02-28T14:14:10;12.75;;;8.80;;
25069;SDS011;13064;48.162;11.536;2023-02-28T14:16:57;11.60;;;8.75;;
25069;SDS011;13064;48.162;11.536;2023-02-28T14:19:29;14.45;;;9.02;;
25069;SDS011;13064;48.162;11.536;2023-02-28T14:24:50;14.27;;;8.85;;
25069;SDS011;13064;48.162;11.536;2023-02-28T14:30:13;12.43;;;8.68;;
25069;SDS011;13064;48.162;11.536;2023-02-28T14:32:54;11.93;;;7.97;;
25069;SDS011;13064;48.162;11.536;2023-02-28T14:35:37;18.00;;;7.95;;
25069;SDS011;13064;48.162;11.536;2023-02-28T14:38:13;11.85;;;8.18;;
25069;SDS011;13064;48.162;11.536;2023-02-28T14:40:41;10.85;;;8.15;;
25069;SDS011;13064;48.162;11.536;2023-02-28T14:43:23;10.82;;;8.25;;
25069;SDS011;13064;48.162;11.536;2023-02-28T14:45:51;12.35;;;8.98;;
25069;SDS011;13064;48.162;11.536;2023-02-28T14:48:20;14.88;;;9.10;;
25069;SDS011;13064;48.162;11.536;2023-02-28T14:50:52;12.45;;;8.52;;
25069;SDS011;13064;48.162;11.536;2023-02-28T14:53:21;11.48;;;7.85;;
25069;SDS011;13064;48.162;11.536;2023-02-28T14:55:49;15.18;;;8.30;;
25069;SDS011;13064;48.162;11.536;2023-02-28T15:00:54;12.73;;;8.80;;
25069;SDS011;13064;48.162;11.536;2023-02-28T15:03:30;15.95;;;8.77;;
25069;SDS011;13064;48.162;11.536;2023-02-28T15:05:59;12.10;;;8.40;;
25069;SDS011;13064;48.162;11.536;2023-02-28T15:08:28;9.43;;;7.80;;
25069;SDS011;13064;48.162;11.536;2023-02-28T15:10:57;10.05;;;8.27;;
25069;SDS011;13064;48.162;11.536;2023-02-28T15:13:47;12.52;;;9.05;;
25069;SDS011;13064;48.162;11.536;2023-02-28T15:16:17;12.05;;;7.75;;
25069;SDS011;13064;48.162;11.536;2023-02-28T15:21:23;12.80;;;8.93;;
25069;SDS011;13064;48.162;11.536;2023-02-28T15:23:59;12.05;;;8.05;;
25069;SDS011;13064;48.162;11.536;2023-02-28T15:26:36;14.00;;;8.27;;
25069;SDS011;13064;48.162;11.536;2023-02-28T15:29:06;15.55;;;8.82;;
25069;SDS011;13064;48.162;11.536;2023-02-28T15:31:35;12.05;;;8.38;;
25069;SDS011;13064;48.162;11.536;2023-02-28T15:34:33;12.40;;;8.25;;
25069;SDS011;13064;48.162;11.536;2023-02-28T15:42:38;13.90;;;8.93;;
25069;SDS011;13064;48.162;11.536;2023-02-28T15:45:25;11.93;;;8.30;;
25069;SDS011;13064;48.162;11.536;2023-02-28T15:47:53;11.93;;;8.27;;
25069;SDS011;13064;48.162;11.536;2023-02-28T15:52:52;14.57;;;8.93;;
25069;SDS011;13064;48.162;11.536;2023-02-28T15:55:21;13.30;;;8.30;;
25069;SDS011;13064;48.162;11.536;2023-02-28T15:57:53;12.20;;;8.60;;
25069;SDS011;13064;48.162;11.536;2023-02-28T16:00:24;27.17;;;16.02;;
25069;SDS011;13064;48.162;11.536;2023-02-28T16:02:52;13.57;;;8.82;;
25069;SDS011;13064;48.162;11.536;2023-02-28T16:07:55;13.13;;;8.48;;
25069;SDS011;13064;48.162;11.536;2023-02-28T16:10:23;14.40;;;8.82;;
25069;SDS011;13064;48.162;11.536;2023-02-28T16:12:52;14.18;;;9.20;;
25069;SDS011;13064;48.162;11.536;2023-02-28T16:15:22;16.83;;;9.60;;
25069;SDS011;13064;48.162;11.536;2023-02-28T16:17:53;13.43;;;9.52;;
25069;SDS011;13064;48.162;11.536;2023-02-28T16:20:22;13.18;;;9.52;;
25069;SDS011;13064;48.162;11.536;2023-02-28T16:22:51;14.95;;;10.18;;
25069;SDS011;13064;48.162;11.536;2023-02-28T16:25:22;15.40;;;10.43;;
25069;SDS011;13064;48.162;11.536;2023-02-28T16:27:51;16.65;;;8.93;;
25069;SDS011;13064;48.162;11.536;2023-02-28T16:30:21;13.43;;;9.10;;
25069;SDS011;13064;48.162;11.536;2023-02-28T16:32:50;19.33;;;9.43;;
25069;SDS011;13064;48.162;11.536;2023-02-28T16:35:18;13.50;;;8.93;;
25069;SDS011;13064;48.162;11.536;2023-02-28T16:37:46;13.00;;;9.00;;
25069;SDS011;13064;48.162;11.536;2023-02-28T16:40:15;15.25;;;9.52;;
25069;SDS011;13064;48.162;11.536;2023-02-28T16:42:43;16.88;;;9.60;;
25069;SDS011;13064;48.162;11.536;2023-02-28T16:45:15;17.42;;;10.13;;
25069;SDS011;13064;48.162;11.536;2023-02-28T16:47:45;16.25;;;9.55;;
25069;SDS011;13064;48.162;11.536;2023-02-28T16:52:43;21.17;;;10.57;;
25069;SDS011;13064;48.162;11.536;2023-02-28T16:55:11;14.07;;;10.05;;
25069;SDS011;13064;48.162;11.536;2023-02-28T16:57:39;20.83;;;13.43;;
25069;SDS011;13064;48.162;11.536;2023-02-28T17:00:07;25.70;;;13.05;;
25069;SDS011;13064;48.162;11.536;2023-02-28T17:02:35;16.35;;;10.30;;
25069;SDS011;13064;48.162;11.536;2023-02-28T17:05:06;15.13;;;9.73;;
25069;SDS011;13064;48.162;11.536;2023-02-28T17:07:33;15.02;;;9.43;;
25069;SDS011;13064;48.162;11.536;2023-02-28T17:10:01;22.42;;;9.73;;